This is the latest recevied weather packets stored in our database for station/object IR4UCA. If no packets are shown the sender has not sent any weather packets the latest 10 day(s).
| Time | Temp. | Humidity | Pressure | Rain* | Wind** | Luminosity | Snow |
|---|---|---|---|---|---|---|---|
| 1777965584 | 13.89° C | 90% | 1013.2 hPa | 3.81 mm | - | - | - |
| 1777964984 | 13.89° C | 90% | 1013.2 hPa | 5.08 mm | - | - | - |
| 1777964386 | 13.89° C | 89% | 1013.3 hPa | 5.84 mm | - | - | - |
| 1777963783 | 13.89° C | 89% | 1013.2 hPa | 5.84 mm | - | - | - |
| 1777963183 | 13.89° C | 88% | 1013.1 hPa | 4.57 mm | - | - | - |
| 1777961383 | 15° C | 83% | 1013.3 hPa | 0.76 mm | - | - | - |
| 1777960786 | 15.56° C | 81% | 1013.1 hPa | 0.25 mm | - | - | - |
| 1777960183 | 15.56° C | 79% | 1012.9 hPa | 0 mm | - | - | - |
| 1777959584 | 15.56° C | 78% | 1012.8 hPa | 0 mm | - | - | - |
| 1777958986 | 15.56° C | 78% | 1012.8 hPa | 0 mm | - | - | - |
| 1777958383 | 15.56° C | 79% | 1012.8 hPa | 0 mm | - | - | - |
| 1777957783 | 15.56° C | 78% | 1012.7 hPa | 0 mm | - | - | - |
| 1777957183 | 15.56° C | 76% | 1012.7 hPa | 0 mm | - | - | - |
| 1777956583 | 16.11° C | 74% | 1012.5 hPa | 0 mm | - | - | - |
| 1777955983 | 16.11° C | 73% | 1012.5 hPa | 0 mm | - | - | - |
| 1777955383 | 16.67° C | 71% | 1012.6 hPa | 0 mm | - | - | - |
| 1777928384 | 20° C | 57% | 1015.3 hPa | 0 mm | - | - | - |
| 1777927786 | 20° C | 57% | 1015.2 hPa | 0 mm | - | - | - |
| 1777927184 | 20° C | 56% | 1015.2 hPa | 0 mm | - | - | - |
| 1777926584 | 20° C | 56% | 1015.1 hPa | 0 mm | - | - | - |
| 1777925384 | 20° C | 56% | 1015 hPa | 0 mm | - | - | - |
| 1777924784 | 20° C | 55% | 1015 hPa | 0 mm | - | - | - |
| 1777924184 | 20.56° C | 55% | 1014.8 hPa | 0 mm | - | - | - |
| 1777923584 | 20.56° C | 54% | 1014.7 hPa | 0 mm | - | - | - |
| 1777922985 | 20.56° C | 53% | 1014.8 hPa | 0 mm | - | - | - |
* Rain latest hour (hover to see other rain measurements)
** Current wind speed in m/s (hover to see current wind gust speed)